Decoded Metar for KNFE ( in _UNIDENTIFIED) (IATA:N/A) | Meteo·Mobile Aviation Weather
aviador You're here:

KNFE Decoded Metar

in _UNIDENTIFIED
Report Time2018-10-18 14:56:00
UTC Time2018-10-18 15:41:29
Flight Rules vfr VFR
Wind360° at 10 kt
W.Decomp.*RWY 05: 7.5 kt HW 6.6 kt LCW
Visibility9999 m
Phenomena:N/A
Clouds:N/A
Expected CloudBase > 4,400 ft AGL from Temp-Dew spread
CeilingNone
Temp16°C (ISA +1)
Dew Point05°C (48% RH)
AAT11.3°C
QNH1030 hPa
Density Alt-318 ft
Elevation13 ft
Report Wrong Elevation
Raw Report
KNFE 181456Z AUTO 36010KT 320V030 10SM CLR 16/05 A3042 RMK AO2
SLP301 T01610050 51022=

Extra information for KNFE:More info

Metar Taf Metar & Taf Last 4 Metars F.Rules Stats Wind Profile Meteogram Temp Stats Metar ALERT Operation Metar Decoded Social comments